sensor_id;sensor_type;location;lat;lon;timestamp;pressure;altitude;pressure_sealevel;temperature;humidity
70009;BME280;59542;37.950;-122.338;2023-02-21T00:00:04;101610.41;;;20.16;37.81
70009;BME280;59542;37.950;-122.338;2023-02-21T00:02:48;101613.91;;;19.77;39.48
70009;BME280;59542;37.950;-122.338;2023-02-21T00:05:32;101607.66;;;19.43;37.92
70009;BME280;59542;37.950;-122.338;2023-02-21T00:08:16;101608.28;;;19.34;40.07
70009;BME280;59542;37.950;-122.338;2023-02-21T00:11:00;101616.91;;;19.47;39.13
70009;BME280;59542;37.950;-122.338;2023-02-21T00:13:44;101621.34;;;19.37;39.66
70009;BME280;59542;37.950;-122.338;2023-02-21T00:16:28;101622.53;;;19.41;39.38
70009;BME280;59542;37.950;-122.338;2023-02-21T00:19:12;101621.53;;;19.30;39.54
70009;BME280;59542;37.950;-122.338;2023-02-21T00:21:56;101622.56;;;19.12;39.69
70009;BME280;59542;37.950;-122.338;2023-02-21T00:24:40;101630.34;;;19.09;39.78
70009;BME280;59542;37.950;-122.338;2023-02-21T00:27:24;101631.19;;;19.09;40.02
70009;BME280;59542;37.950;-122.338;2023-02-21T00:30:09;101632.22;;;19.37;39.76
70009;BME280;59542;37.950;-122.338;2023-02-21T00:32:53;101638.81;;;19.58;40.45
70009;BME280;59542;37.950;-122.338;2023-02-21T00:35:37;101634.03;;;19.48;41.19
70009;BME280;59542;37.950;-122.338;2023-02-21T00:38:21;101627.59;;;19.20;41.47
70009;BME280;59542;37.950;-122.338;2023-02-21T00:41:05;101629.03;;;19.40;41.18
70009;BME280;59542;37.950;-122.338;2023-02-21T00:43:49;101634.66;;;18.93;41.63
70009;BME280;59542;37.950;-122.338;2023-02-21T00:46:33;101642.06;;;18.69;42.85
70009;BME280;59542;37.950;-122.338;2023-02-21T00:49:17;101637.44;;;19.10;42.67
70009;BME280;59542;37.950;-122.338;2023-02-21T00:52:01;101632.97;;;18.75;42.62
70009;BME280;59542;37.950;-122.338;2023-02-21T00:54:46;101632.38;;;18.33;40.81
70009;BME280;59542;37.950;-122.338;2023-02-21T00:57:30;101630.13;;;18.30;41.55
70009;BME280;59542;37.950;-122.338;2023-02-21T01:00:15;101625.28;;;18.32;41.87
70009;BME280;59542;37.950;-122.338;2023-02-21T01:03:00;101621.41;;;18.28;41.34
70009;BME280;59542;37.950;-122.338;2023-02-21T01:05:44;101616.25;;;17.79;44.36
70009;BME280;59542;37.950;-122.338;2023-02-21T01:08:28;101619.91;;;17.85;46.71
70009;BME280;59542;37.950;-122.338;2023-02-21T01:11:15;101621.16;;;17.71;47.41
70009;BME280;59542;37.950;-122.338;2023-02-21T01:13:59;101631.97;;;17.71;48.25
70009;BME280;59542;37.950;-122.338;2023-02-21T01:16:43;101625.28;;;17.20;49.34
70009;BME280;59542;37.950;-122.338;2023-02-21T01:19:27;101617.31;;;17.25;49.35
70009;BME280;59542;37.950;-122.338;2023-02-21T01:22:11;101619.59;;;17.51;49.50
70009;BME280;59542;37.950;-122.338;2023-02-21T01:24:55;101610.13;;;17.19;50.16
70009;BME280;59542;37.950;-122.338;2023-02-21T01:27:39;101607.22;;;16.53;51.82
70009;BME280;59542;37.950;-122.338;2023-02-21T01:30:23;101597.31;;;16.47;51.70
70009;BME280;59542;37.950;-122.338;2023-02-21T01:33:07;101612.19;;;16.56;51.14
70009;BME280;59542;37.950;-122.338;2023-02-21T01:35:51;101611.81;;;16.53;51.26
70009;BME280;59542;37.950;-122.338;2023-02-21T01:38:35;101632.97;;;16.19;52.24
70009;BME280;59542;37.950;-122.338;2023-02-21T01:41:20;101628.41;;;16.20;52.79
70009;BME280;59542;37.950;-122.338;2023-02-21T01:44:05;101636.28;;;15.78;52.90
70009;BME280;59542;37.950;-122.338;2023-02-21T01:46:49;101644.28;;;15.59;53.15
70009;BME280;59542;37.950;-122.338;2023-02-21T01:49:34;101639.69;;;15.35;53.99
70009;BME280;59542;37.950;-122.338;2023-02-21T01:52:19;101650.19;;;15.50;53.60
70009;BME280;59542;37.950;-122.338;2023-02-21T01:55:03;101651.25;;;15.74;52.66
70009;BME280;59542;37.950;-122.338;2023-02-21T01:57:49;101655.84;;;15.73;52.50
70009;BME280;59542;37.950;-122.338;2023-02-21T02:00:34;101656.31;;;15.64;52.62
70009;BME280;59542;37.950;-122.338;2023-02-21T02:03:18;101642.03;;;15.56;52.51
70009;BME280;59542;37.950;-122.338;2023-02-21T02:06:07;101642.28;;;15.48;52.84
70009;BME280;59542;37.950;-122.338;2023-02-21T02:08:52;101651.88;;;15.44;52.93
70009;BME280;59542;37.950;-122.338;2023-02-21T02:11:56;101650.63;;;15.09;54.00
70009;BME280;59542;37.950;-122.338;2023-02-21T02:35:59;101627.59;;;14.74;56.57
70009;BME280;59542;37.950;-122.338;2023-02-21T02:38:31;101628.41;;;14.75;57.02
70009;BME280;59542;37.950;-122.338;2023-02-21T02:40:59;101627.06;;;14.52;58.40
70009;BME280;59542;37.950;-122.338;2023-02-21T02:45:59;101622.91;;;14.43;60.14
70009;BME280;59542;37.950;-122.338;2023-02-21T02:50:53;101618.38;;;14.44;60.60
70009;BME280;59542;37.950;-122.338;2023-02-21T02:53:20;101622.78;;;14.18;61.72
70009;BME280;59542;37.950;-122.338;2023-02-21T02:55:56;101621.31;;;14.29;61.66
70009;BME280;59542;37.950;-122.338;2023-02-21T02:58:24;101623.41;;;14.27;61.55
70009;BME280;59542;37.950;-122.338;2023-02-21T03:06:06;101632.28;;;14.21;60.98
70009;BME280;59542;37.950;-122.338;2023-02-21T03:11:17;101642.66;;;14.17;60.88
70009;BME280;59542;37.950;-122.338;2023-02-21T03:13:52;101649.09;;;14.23;60.60
70009;BME280;59542;37.950;-122.338;2023-02-21T03:16:22;101634.19;;;14.07;60.71
70009;BME280;59542;37.950;-122.338;2023-02-21T03:19:10;101632.97;;;13.96;61.01
70009;BME280;59542;37.950;-122.338;2023-02-21T03:21:36;101630.06;;;13.91;61.08
70009;BME280;59542;37.950;-122.338;2023-02-21T03:24:03;101631.53;;;13.94;61.19
70009;BME280;59542;37.950;-122.338;2023-02-21T03:26:31;101625.94;;;13.95;61.03
70009;BME280;59542;37.950;-122.338;2023-02-21T03:28:58;101618.69;;;13.89;61.37
70009;BME280;59542;37.950;-122.338;2023-02-21T03:31:31;101611.66;;;13.95;61.12
70009;BME280;59542;37.950;-122.338;2023-02-21T03:33:59;101606.06;;;13.96;60.94
70009;BME280;59542;37.950;-122.338;2023-02-21T03:36:26;101603.38;;;13.96;60.78
70009;BME280;59542;37.950;-122.338;2023-02-21T03:38:52;101607.91;;;13.96;60.83
70009;BME280;59542;37.950;-122.338;2023-02-21T03:41:18;101615.16;;;13.82;60.99
70009;BME280;59542;37.950;-122.338;2023-02-21T03:43:44;101603.56;;;13.82;60.71
70009;BME280;59542;37.950;-122.338;2023-02-21T03:46:10;101598.84;;;13.64;60.97
70009;BME280;59542;37.950;-122.338;2023-02-21T03:48:36;101589.53;;;13.60;60.73
70009;BME280;59542;37.950;-122.338;2023-02-21T03:51:01;101601.75;;;13.62;60.77
70009;BME280;59542;37.950;-122.338;2023-02-21T03:53:27;101610.44;;;13.44;61.14
70009;BME280;59542;37.950;-122.338;2023-02-21T03:55:53;101615.75;;;13.11;59.06
70009;BME280;59542;37.950;-122.338;2023-02-21T03:58:19;101616.59;;;13.25;58.85
70009;BME280;59542;37.950;-122.338;2023-02-21T04:00:45;101616.81;;;13.30;58.12
70009;BME280;59542;37.950;-122.338;2023-02-21T04:03:11;101622.41;;;13.29;57.97
70009;BME280;59542;37.950;-122.338;2023-02-21T04:05:37;101617.88;;;13.29;57.22
70009;BME280;59542;37.950;-122.338;2023-02-21T04:08:03;101624.69;;;13.32;56.68
70009;BME280;59542;37.950;-122.338;2023-02-21T04:10:29;101617.19;;;13.20;56.28
70009;BME280;59542;37.950;-122.338;2023-02-21T04:12:55;101612.84;;;13.19;55.76
70009;BME280;59542;37.950;-122.338;2023-02-21T04:15:21;101611.59;;;13.09;54.98
70009;BME280;59542;37.950;-122.338;2023-02-21T04:17:46;101603.13;;;13.18;54.08
70009;BME280;59542;37.950;-122.338;2023-02-21T04:20:13;101599.22;;;13.21;53.55
70009;BME280;59542;37.950;-122.338;2023-02-21T04:22:38;101591.56;;;13.11;54.06
70009;BME280;59542;37.950;-122.338;2023-02-21T04:25:05;101581.63;;;13.05;54.30
70009;BME280;59542;37.950;-122.338;2023-02-21T04:27:31;101584.31;;;13.05;54.53
70009;BME280;59542;37.950;-122.338;2023-02-21T04:29:56;101586.16;;;13.05;54.68
70009;BME280;59542;37.950;-122.338;2023-02-21T04:32:22;101579.53;;;13.01;54.80
70009;BME280;59542;37.950;-122.338;2023-02-21T04:34:48;101589.25;;;12.95;54.86
70009;BME280;59542;37.950;-122.338;2023-02-21T04:37:14;101595.84;;;12.92;54.79
70009;BME280;59542;37.950;-122.338;2023-02-21T04:39:40;101586.34;;;12.90;54.85
70009;BME280;59542;37.950;-122.338;2023-02-21T04:42:06;101582.81;;;12.89;54.72
70009;BME280;59542;37.950;-122.338;2023-02-21T04:44:32;101577.63;;;12.81;54.81
70009;BME280;59542;37.950;-122.338;2023-02-21T04:46:57;101582.38;;;12.79;54.67
70009;BME280;59542;37.950;-122.338;2023-02-21T04:49:23;101579.06;;;12.77;54.75
70009;BME280;59542;37.950;-122.338;2023-02-21T04:51:52;101571.63;;;12.73;54.98
70009;BME280;59542;37.950;-122.338;2023-02-21T04:54:18;101578.41;;;12.62;56.29
70009;BME280;59542;37.950;-122.338;2023-02-21T04:56:43;101575.28;;;12.65;57.19
70009;BME280;59542;37.950;-122.338;2023-02-21T04:59:09;101571.16;;;12.62;57.98
70009;BME280;59542;37.950;-122.338;2023-02-21T05:01:35;101580.41;;;12.47;57.53
70009;BME280;59542;37.950;-122.338;2023-02-21T05:04:01;101579.66;;;12.66;56.86
70009;BME280;59542;37.950;-122.338;2023-02-21T05:06:28;101569.88;;;12.45;56.41
70009;BME280;59542;37.950;-122.338;2023-02-21T05:08:54;101581.00;;;12.01;57.30
70009;BME280;59542;37.950;-122.338;2023-02-21T05:11:20;101575.47;;;12.09;57.10
70009;BME280;59542;37.950;-122.338;2023-02-21T05:13:46;101569.19;;;12.30;56.81
70009;BME280;59542;37.950;-122.338;2023-02-21T05:16:12;101564.25;;;12.33;56.96
70009;BME280;59542;37.950;-122.338;2023-02-21T05:18:42;101566.88;;;12.27;57.21
70009;BME280;59542;37.950;-122.338;2023-02-21T05:21:08;101555.25;;;12.13;58.47
70009;BME280;59542;37.950;-122.338;2023-02-21T05:23:34;101548.28;;;12.19;59.42
70009;BME280;59542;37.950;-122.338;2023-02-21T05:26:09;101550.25;;;12.03;60.06
70009;BME280;59542;37.950;-122.338;2023-02-21T05:28:36;101539.19;;;12.20;61.72
70009;BME280;59542;37.950;-122.338;2023-02-21T05:31:02;101552.19;;;12.16;62.60
70009;BME280;59542;37.950;-122.338;2023-02-21T05:33:28;101539.88;;;11.94;64.15
70009;BME280;59542;37.950;-122.338;2023-02-21T05:35:53;101540.16;;;12.05;64.50
70009;BME280;59542;37.950;-122.338;2023-02-21T05:38:20;101544.16;;;11.88;65.19
70009;BME280;59542;37.950;-122.338;2023-02-21T05:40:46;101538.78;;;12.16;64.70
70009;BME280;59542;37.950;-122.338;2023-02-21T05:43:12;101529.00;;;12.08;65.96
70009;BME280;59542;37.950;-122.338;2023-02-21T05:45:38;101524.66;;;12.01;66.48
70009;BME280;59542;37.950;-122.338;2023-02-21T05:48:04;101531.94;;;12.13;66.79
70009;BME280;59542;37.950;-122.338;2023-02-21T05:50:30;101533.34;;;12.09;67.46
70009;BME280;59542;37.950;-122.338;2023-02-21T05:52:56;101537.31;;;12.20;68.04
70009;BME280;59542;37.950;-122.338;2023-02-21T05:55:22;101548.94;;;12.27;68.45
70009;BME280;59542;37.950;-122.338;2023-02-21T05:57:48;101548.88;;;12.21;69.76
70009;BME280;59542;37.950;-122.338;2023-02-21T06:00:15;101545.34;;;11.79;72.53
70009;BME280;59542;37.950;-122.338;2023-02-21T06:02:41;101544.06;;;12.03;72.24
70009;BME280;59542;37.950;-122.338;2023-02-21T06:05:06;101545.78;;;11.82;73.95
70009;BME280;59542;37.950;-122.338;2023-02-21T06:07:32;101539.31;;;11.77;74.63
70009;BME280;59542;37.950;-122.338;2023-02-21T06:09:58;101543.81;;;11.70;75.65
70009;BME280;59542;37.950;-122.338;2023-02-21T06:12:24;101534.38;;;11.74;76.40
70009;BME280;59542;37.950;-122.338;2023-02-21T06:14:50;101531.09;;;11.78;76.52
70009;BME280;59542;37.950;-122.338;2023-02-21T06:17:16;101537.59;;;11.34;78.61
70009;BME280;59542;37.950;-122.338;2023-02-21T06:19:42;101529.16;;;11.37;79.54
70009;BME280;59542;37.950;-122.338;2023-02-21T06:22:07;101526.97;;;11.48;79.53
70009;BME280;59542;37.950;-122.338;2023-02-21T06:24:33;101522.38;;;11.42;79.52
70009;BME280;59542;37.950;-122.338;2023-02-21T06:26:59;101533.44;;;11.32;80.52
70009;BME280;59542;37.950;-122.338;2023-02-21T06:29:25;101537.06;;;11.46;80.27
70009;BME280;59542;37.950;-122.338;2023-02-21T06:31:55;101533.50;;;11.39;80.26
70009;BME280;59542;37.950;-122.338;2023-02-21T06:34:21;101534.59;;;11.44;80.28
70009;BME280;59542;37.950;-122.338;2023-02-21T06:36:50;101543.53;;;11.30;81.41
70009;BME280;59542;37.950;-122.338;2023-02-21T06:39:15;101543.88;;;11.48;80.73
70009;BME280;59542;37.950;-122.338;2023-02-21T06:41:41;101550.22;;;11.41;81.71
70009;BME280;59542;37.950;-122.338;2023-02-21T06:44:07;101543.69;;;11.22;82.72
70009;BME280;59542;37.950;-122.338;2023-02-21T06:46:33;101553.19;;;11.03;83.83
70009;BME280;59542;37.950;-122.338;2023-02-21T06:49:01;101545.66;;;11.13;83.96
70009;BME280;59542;37.950;-122.338;2023-02-21T06:51:27;101548.50;;;11.33;83.48
70009;BME280;59542;37.950;-122.338;2023-02-21T06:53:56;101538.16;;;11.30;83.44
70009;BME280;59542;37.950;-122.338;2023-02-21T06:56:22;101532.91;;;11.43;82.46
70009;BME280;59542;37.950;-122.338;2023-02-21T06:58:48;101527.75;;;11.42;82.84
70009;BME280;59542;37.950;-122.338;2023-02-21T07:01:14;101526.94;;;11.20;83.63
70009;BME280;59542;37.950;-122.338;2023-02-21T07:03:40;101514.38;;;11.20;83.72
70009;BME280;59542;37.950;-122.338;2023-02-21T07:06:07;101507.91;;;10.87;85.40
70009;BME280;59542;37.950;-122.338;2023-02-21T07:08:33;101507.13;;;10.93;85.41
70009;BME280;59542;37.950;-122.338;2023-02-21T07:10:59;101492.47;;;10.89;85.57
70009;BME280;59542;37.950;-122.338;2023-02-21T07:13:25;101489.16;;;10.87;86.34
70009;BME280;59542;37.950;-122.338;2023-02-21T07:15:51;101472.44;;;11.06;85.20
70009;BME280;59542;37.950;-122.338;2023-02-21T07:18:16;101471.66;;;11.12;84.34
70009;BME280;59542;37.950;-122.338;2023-02-21T07:20:42;101463.13;;;11.02;84.47
70009;BME280;59542;37.950;-122.338;2023-02-21T07:23:08;101453.44;;;11.01;84.68
70009;BME280;59542;37.950;-122.338;2023-02-21T07:25:34;101457.69;;;11.17;83.34
70009;BME280;59542;37.950;-122.338;2023-02-21T07:28:00;101437.19;;;11.09;83.29
70009;BME280;59542;37.950;-122.338;2023-02-21T07:30:28;101432.22;;;10.99;83.38
70009;BME280;59542;37.950;-122.338;2023-02-21T07:32:56;101434.88;;;10.99;83.10
70009;BME280;59542;37.950;-122.338;2023-02-21T07:35:21;101433.94;;;11.14;82.99
70009;BME280;59542;37.950;-122.338;2023-02-21T07:37:47;101429.91;;;11.24;81.86
70009;BME280;59542;37.950;-122.338;2023-02-21T07:40:13;101429.94;;;11.03;83.16
70009;BME280;59542;37.950;-122.338;2023-02-21T07:42:42;101431.34;;;10.99;82.59
70009;BME280;59542;37.950;-122.338;2023-02-21T07:45:09;101418.66;;;11.07;81.81
70009;BME280;59542;37.950;-122.338;2023-02-21T07:47:35;101416.13;;;11.27;81.09
70009;BME280;59542;37.950;-122.338;2023-02-21T07:50:01;101398.63;;;11.38;80.38
70009;BME280;59542;37.950;-122.338;2023-02-21T07:52:26;101396.16;;;11.02;81.58
70009;BME280;59542;37.950;-122.338;2023-02-21T07:54:52;101387.13;;;10.81;82.65
70009;BME280;59542;37.950;-122.338;2023-02-21T07:57:18;101386.09;;;10.82;83.52
70009;BME280;59542;37.950;-122.338;2023-02-21T07:59:44;101383.28;;;10.91;82.38
70009;BME280;59542;37.950;-122.338;2023-02-21T08:02:10;101380.66;;;10.97;81.44
70009;BME280;59542;37.950;-122.338;2023-02-21T08:04:36;101383.63;;;11.09;80.21
70009;BME280;59542;37.950;-122.338;2023-02-21T08:07:02;101384.41;;;11.03;80.01
70009;BME280;59542;37.950;-122.338;2023-02-21T08:09:28;101375.25;;;10.91;79.95
70009;BME280;59542;37.950;-122.338;2023-02-21T08:11:54;101372.63;;;10.97;79.41
70009;BME280;59542;37.950;-122.338;2023-02-21T08:14:20;101377.72;;;11.20;78.41
70009;BME280;59542;37.950;-122.338;2023-02-21T08:16:46;101376.41;;;11.09;78.62
70009;BME280;59542;37.950;-122.338;2023-02-21T08:19:11;101384.69;;;10.87;78.90
70009;BME280;59542;37.950;-122.338;2023-02-21T08:21:37;101384.06;;;10.84;78.97
70009;BME280;59542;37.950;-122.338;2023-02-21T08:24:03;101376.38;;;11.03;78.28
70009;BME280;59542;37.950;-122.338;2023-02-21T08:26:29;101377.94;;;10.91;78.22
70009;BME280;59542;37.950;-122.338;2023-02-21T08:28:55;101392.97;;;10.92;78.43
70009;BME280;59542;37.950;-122.338;2023-02-21T08:31:21;101392.31;;;10.83;78.46
70009;BME280;59542;37.950;-122.338;2023-02-21T08:33:47;101371.59;;;10.70;78.24
70009;BME280;59542;37.950;-122.338;2023-02-21T08:36:12;101378.13;;;11.17;77.28
70009;BME280;59542;37.950;-122.338;2023-02-21T08:38:38;101395.03;;;10.90;77.03
70009;BME280;59542;37.950;-122.338;2023-02-21T08:41:05;101381.47;;;10.70;77.92
70009;BME280;59542;37.950;-122.338;2023-02-21T08:43:32;101384.91;;;10.85;77.52
70009;BME280;59542;37.950;-122.338;2023-02-21T08:45:58;101383.22;;;10.77;77.68
70009;BME280;59542;37.950;-122.338;2023-02-21T08:48:23;101378.03;;;10.76;77.75
70009;BME280;59542;37.950;-122.338;2023-02-21T08:50:49;101382.47;;;10.62;78.67
70009;BME280;59542;37.950;-122.338;2023-02-21T08:53:18;101375.88;;;10.43;79.84
70009;BME280;59542;37.950;-122.338;2023-02-21T08:55:43;101372.53;;;10.35;80.57
70009;BME280;59542;37.950;-122.338;2023-02-21T08:58:10;101377.69;;;10.57;79.77
70009;BME280;59542;37.950;-122.338;2023-02-21T09:00:37;101369.44;;;10.59;79.89
70009;BME280;59542;37.950;-122.338;2023-02-21T09:03:03;101393.44;;;10.46;80.65
70009;BME280;59542;37.950;-122.338;2023-02-21T09:05:29;101394.25;;;10.25;82.12
70009;BME280;59542;37.950;-122.338;2023-02-21T09:07:56;101388.19;;;10.38;82.71
70009;BME280;59542;37.950;-122.338;2023-02-21T09:10:26;101387.38;;;10.37;81.42
70009;BME280;59542;37.950;-122.338;2023-02-21T09:12:53;101375.16;;;10.13;83.41
70009;BME280;59542;37.950;-122.338;2023-02-21T09:15:19;101373.50;;;10.12;84.27
70009;BME280;59542;37.950;-122.338;2023-02-21T09:17:45;101380.97;;;10.17;84.82
70009;BME280;59542;37.950;-122.338;2023-02-21T09:20:12;101374.13;;;10.29;84.03
70009;BME280;59542;37.950;-122.338;2023-02-21T09:22:41;101363.50;;;10.21;85.57
70009;BME280;59542;37.950;-122.338;2023-02-21T09:25:09;101359.38;;;10.18;86.45
70009;BME280;59542;37.950;-122.338;2023-02-21T09:27:40;101364.81;;;10.10;87.27
70009;BME280;59542;37.950;-122.338;2023-02-21T09:32:35;101347.56;;;10.27;86.98
70009;BME280;59542;37.950;-122.338;2023-02-21T09:35:01;101347.66;;;10.19;87.83
70009;BME280;59542;37.950;-122.338;2023-02-21T09:37:27;101342.53;;;10.03;88.61
70009;BME280;59542;37.950;-122.338;2023-02-21T09:39:53;101343.69;;;10.15;88.92
70009;BME280;59542;37.950;-122.338;2023-02-21T09:42:21;101339.09;;;10.24;88.33
70009;BME280;59542;37.950;-122.338;2023-02-21T09:44:48;101328.47;;;10.16;88.62
70009;BME280;59542;37.950;-122.338;2023-02-21T09:47:23;101326.50;;;10.03;89.23
70009;BME280;59542;37.950;-122.338;2023-02-21T09:49:52;101309.69;;;10.09;89.00
70009;BME280;59542;37.950;-122.338;2023-02-21T09:52:24;101307.81;;;10.24;87.79
70009;BME280;59542;37.950;-122.338;2023-02-21T09:54:53;101317.53;;;10.11;87.44
70009;BME280;59542;37.950;-122.338;2023-02-21T09:57:21;101315.19;;;10.22;87.29
70009;BME280;59542;37.950;-122.338;2023-02-21T09:59:47;101298.75;;;10.25;86.73
70009;BME280;59542;37.950;-122.338;2023-02-21T10:05:20;101295.25;;;10.25;86.11
70009;BME280;59542;37.950;-122.338;2023-02-21T10:07:58;101285.00;;;10.28;85.63
70009;BME280;59542;37.950;-122.338;2023-02-21T10:18:21;101273.19;;;10.23;84.05
70009;BME280;59542;37.950;-122.338;2023-02-21T10:20:53;101281.03;;;10.03;85.00
70009;BME280;59542;37.950;-122.338;2023-02-21T10:23:39;101285.94;;;9.78;86.88
70009;BME280;59542;37.950;-122.338;2023-02-21T10:26:08;101286.94;;;9.98;85.41
70009;BME280;59542;37.950;-122.338;2023-02-21T10:28:34;101278.81;;;10.07;85.25
70009;BME280;59542;37.950;-122.338;2023-02-21T10:31:02;101269.06;;;9.99;85.49
70009;BME280;59542;37.950;-122.338;2023-02-21T10:33:30;101271.97;;;10.04;85.60
70009;BME280;59542;37.950;-122.338;2023-02-21T10:35:58;101272.94;;;10.18;84.40
70009;BME280;59542;37.950;-122.338;2023-02-21T10:38:24;101266.31;;;10.14;84.42
70009;BME280;59542;37.950;-122.338;2023-02-21T10:40:52;101246.75;;;10.13;84.78
70009;BME280;59542;37.950;-122.338;2023-02-21T10:45:52;101227.44;;;9.90;86.24
70009;BME280;59542;37.950;-122.338;2023-02-21T10:48:20;101223.41;;;10.00;85.63
70009;BME280;59542;37.950;-122.338;2023-02-21T10:50:50;101222.69;;;10.13;84.72
70009;BME280;59542;37.950;-122.338;2023-02-21T10:53:27;101226.66;;;10.17;84.76
70009;BME280;59542;37.950;-122.338;2023-02-21T10:56:27;101218.44;;;9.76;87.38
70009;BME280;59542;37.950;-122.338;2023-02-21T10:58:47;101217.16;;;9.93;87.56
70009;BME280;59542;37.950;-122.338;2023-02-21T11:01:14;101203.69;;;10.01;87.17
70009;BME280;59542;37.950;-122.338;2023-02-21T11:03:42;101194.50;;;10.11;86.80
70009;BME280;59542;37.950;-122.338;2023-02-21T11:06:09;101187.19;;;9.98;87.62
70009;BME280;59542;37.950;-122.338;2023-02-21T11:08:44;101190.81;;;9.90;88.58
70009;BME280;59542;37.950;-122.338;2023-02-21T11:11:10;101185.69;;;9.89;88.67
70009;BME280;59542;37.950;-122.338;2023-02-21T11:13:36;101177.97;;;10.00;88.27
70009;BME280;59542;37.950;-122.338;2023-02-21T11:16:15;101169.44;;;9.90;88.04
70009;BME280;59542;37.950;-122.338;2023-02-21T11:18:41;101178.81;;;10.08;87.60
70009;BME280;59542;37.950;-122.338;2023-02-21T11:21:11;101169.81;;;9.87;89.42
70009;BME280;59542;37.950;-122.338;2023-02-21T11:23:42;101171.34;;;9.96;88.67
70009;BME280;59542;37.950;-122.338;2023-02-21T11:26:10;101166.03;;;10.03;88.21
70009;BME280;59542;37.950;-122.338;2023-02-21T11:28:37;101159.06;;;10.09;87.51
70009;BME280;59542;37.950;-122.338;2023-02-21T11:31:05;101164.19;;;10.03;87.54
70009;BME280;59542;37.950;-122.338;2023-02-21T11:33:31;101158.75;;;10.18;86.31
70009;BME280;59542;37.950;-122.338;2023-02-21T11:38:34;101141.34;;;10.01;87.34
70009;BME280;59542;37.950;-122.338;2023-02-21T11:41:00;101151.63;;;10.04;86.57
70009;BME280;59542;37.950;-122.338;2023-02-21T11:43:27;101156.19;;;10.10;86.68
70009;BME280;59542;37.950;-122.338;2023-02-21T11:48:19;101148.34;;;10.02;84.95
70009;BME280;59542;37.950;-122.338;2023-02-21T11:50:52;101150.47;;;10.13;84.95
70009;BME280;59542;37.950;-122.338;2023-02-21T11:53:22;101158.66;;;10.05;83.77
70009;BME280;59542;37.950;-122.338;2023-02-21T11:58:38;101143.03;;;10.09;83.09
70009;BME280;59542;37.950;-122.338;2023-02-21T12:01:09;101145.47;;;10.03;82.60
70009;BME280;59542;37.950;-122.338;2023-02-21T12:03:59;101139.63;;;9.93;81.50
70009;BME280;59542;37.950;-122.338;2023-02-21T12:06:32;101139.03;;;9.70;81.57
70009;BME280;59542;37.950;-122.338;2023-02-21T12:09:11;101133.94;;;9.53;82.32
70009;BME280;59542;37.950;-122.338;2023-02-21T12:24:43;101128.28;;;9.63;79.70
70009;BME280;59542;37.950;-122.338;2023-02-21T12:29:54;101125.97;;;9.82;79.51
70009;BME280;59542;37.950;-122.338;2023-02-21T12:32:37;101126.22;;;9.87;79.60
70009;BME280;59542;37.950;-122.338;2023-02-21T12:35:27;101121.66;;;9.59;81.09
70009;BME280;59542;37.950;-122.338;2023-02-21T12:48:17;101126.69;;;9.69;81.90
70009;BME280;59542;37.950;-122.338;2023-02-21T12:50:54;101114.13;;;9.91;81.48
70009;BME280;59542;37.950;-122.338;2023-02-21T12:53:27;101115.47;;;9.80;82.05
70009;BME280;59542;37.950;-122.338;2023-02-21T12:56:15;101128.66;;;9.60;83.10
70009;BME280;59542;37.950;-122.338;2023-02-21T13:01:14;101123.50;;;9.80;82.99
70009;BME280;59542;37.950;-122.338;2023-02-21T13:03:46;101119.25;;;9.64;83.41
70009;BME280;59542;37.950;-122.338;2023-02-21T13:11:36;101100.78;;;9.69;83.21
70009;BME280;59542;37.950;-122.338;2023-02-21T13:14:12;101096.22;;;9.63;83.86
70009;BME280;59542;37.950;-122.338;2023-02-21T13:16:40;101102.53;;;9.56;84.74
70009;BME280;59542;37.950;-122.338;2023-02-21T13:19:07;101094.94;;;9.59;84.41
70009;BME280;59542;37.950;-122.338;2023-02-21T13:21:54;101097.50;;;9.46;84.59
70009;BME280;59542;37.950;-122.338;2023-02-21T13:24:27;101089.56;;;9.52;84.74
70009;BME280;59542;37.950;-122.338;2023-02-21T13:29:29;101067.06;;;9.68;83.82
70009;BME280;59542;37.950;-122.338;2023-02-21T13:32:00;101052.31;;;9.72;83.54
70009;BME280;59542;37.950;-122.338;2023-02-21T13:34:28;101061.28;;;9.65;83.87
70009;BME280;59542;37.950;-122.338;2023-02-21T13:37:00;101068.13;;;9.74;83.56
70009;BME280;59542;37.950;-122.338;2023-02-21T13:39:27;101069.34;;;9.71;83.50
70009;BME280;59542;37.950;-122.338;2023-02-21T13:42:08;101069.66;;;9.55;84.65
70009;BME280;59542;37.950;-122.338;2023-02-21T13:44:38;101055.94;;;9.65;84.03
70009;BME280;59542;37.950;-122.338;2023-02-21T13:47:06;101045.69;;;9.68;83.89
70009;BME280;59542;37.950;-122.338;2023-02-21T13:49:39;101038.56;;;9.54;84.33
70009;BME280;59542;37.950;-122.338;2023-02-21T13:52:14;101043.78;;;9.62;83.81
70009;BME280;59542;37.950;-122.338;2023-02-21T13:57:49;101078.09;;;9.59;84.50
70009;BME280;59542;37.950;-122.338;2023-02-21T14:02:59;101069.00;;;9.53;84.74
70009;BME280;59542;37.950;-122.338;2023-02-21T14:05:27;101055.63;;;9.53;85.23
70009;BME280;59542;37.950;-122.338;2023-02-21T14:08:17;101055.50;;;9.61;84.84
70009;BME280;59542;37.950;-122.338;2023-02-21T14:10:47;101053.22;;;9.58;84.31
70009;BME280;59542;37.950;-122.338;2023-02-21T14:13:33;101045.19;;;9.58;84.37
70009;BME280;59542;37.950;-122.338;2023-02-21T14:18:43;101059.19;;;9.60;84.70
70009;BME280;59542;37.950;-122.338;2023-02-21T14:21:21;101049.88;;;9.49;85.34
70009;BME280;59542;37.950;-122.338;2023-02-21T14:23:54;101036.50;;;9.49;84.95